createdAt,value
2018-11-21T00:00:10.830Z,12.80
2018-11-21T00:03:35.743Z,13.10
2018-11-21T00:07:00.698Z,13.60
2018-11-21T00:10:25.647Z,12.20
2018-11-21T00:13:50.595Z,13.03
2018-11-21T00:17:15.520Z,14.43
2018-11-21T00:20:40.428Z,13.13
2018-11-21T00:24:23.991Z,13.83
2018-11-21T00:27:49.961Z,12.60
2018-11-21T00:31:14.905Z,13.47
2018-11-21T00:34:39.823Z,13.17
2018-11-21T00:38:04.748Z,13.00
2018-11-21T00:41:30.007Z,12.57
2018-11-21T00:44:54.933Z,12.30
2018-11-21T00:48:19.930Z,12.23
2018-11-21T00:51:45.001Z,11.63
2018-11-21T00:55:09.925Z,11.17
2018-11-21T00:58:16.082Z,11.80
2018-11-21T01:01:41.003Z,11.37
2018-11-21T01:05:06.251Z,12.40
2018-11-21T01:08:31.202Z,12.23
2018-11-21T01:11:56.502Z,11.20
2018-11-21T01:15:21.739Z,11.30
2018-11-21T01:18:46.679Z,11.90
2018-11-21T01:22:11.607Z,11.10
2018-11-21T01:25:36.776Z,11.10
2018-11-21T01:29:01.840Z,10.37
2018-11-21T01:32:27.089Z,11.33
2018-11-21T01:35:52.292Z,10.83
2018-11-21T01:39:17.577Z,11.53
2018-11-21T01:42:42.494Z,11.10
2018-11-21T01:46:07.425Z,12.03
2018-11-21T01:49:32.373Z,11.23
2018-11-21T01:52:57.354Z,12.23
2018-11-21T01:56:22.571Z,11.87
2018-11-21T01:59:47.825Z,11.60
2018-11-21T02:03:12.748Z,11.07
2018-11-21T02:06:37.973Z,11.10
2018-11-21T02:10:03.243Z,11.27
2018-11-21T02:13:28.196Z,10.88
2018-11-21T02:16:53.116Z,11.05
2018-11-21T02:20:18.090Z,11.60
2018-11-21T02:23:43.010Z,11.23
2018-11-21T02:27:07.957Z,12.03
2018-11-21T02:30:32.889Z,12.07
2018-11-21T02:33:58.519Z,12.23
2018-11-21T02:37:42.060Z,12.07
2018-11-21T02:41:26.550Z,12.57
2018-11-21T02:44:51.746Z,11.90
2018-11-21T02:48:36.193Z,12.10
2018-11-21T02:52:20.052Z,12.00
2018-11-21T02:55:45.291Z,12.30
2018-11-21T02:59:10.580Z,12.07
2018-11-21T03:02:35.553Z,11.03
2018-11-21T03:06:00.779Z,11.70
2018-11-21T03:09:25.839Z,12.43
2018-11-21T03:12:51.259Z,11.93
2018-11-21T03:16:16.493Z,12.27
2018-11-21T03:19:41.713Z,12.68
2018-11-21T03:23:06.800Z,12.43
2018-11-21T03:26:32.082Z,11.93
2018-11-21T03:30:15.910Z,12.03
2018-11-21T03:33:40.850Z,12.07
2018-11-21T03:37:06.007Z,11.80
2018-11-21T03:40:30.953Z,12.63
2018-11-21T03:43:56.169Z,12.43
2018-11-21T03:47:02.061Z,12.63
2018-11-21T03:50:10.593Z,13.13
2018-11-21T03:53:16.788Z,12.73
2018-11-21T03:56:42.037Z,12.67
2018-11-21T04:00:09.222Z,11.43
2018-11-21T04:03:35.132Z,15.23
2018-11-21T04:07:00.084Z,11.77
2018-11-21T04:10:24.995Z,12.47
2018-11-21T04:13:50.235Z,13.00
2018-11-21T04:16:56.159Z,13.00
2018-11-21T04:20:02.278Z,13.20
2018-11-21T04:23:08.489Z,13.38
2018-11-21T04:26:14.501Z,11.90
2018-11-21T04:29:20.727Z,12.50
2018-11-21T04:32:45.649Z,12.23
2018-11-21T04:36:10.579Z,12.70
2018-11-21T04:39:35.559Z,11.87
2018-11-21T04:43:00.780Z,12.40
2018-11-21T04:46:26.003Z,14.47
2018-11-21T04:49:50.952Z,12.33
2018-11-21T04:53:15.876Z,13.10
2018-11-21T04:56:42.043Z,12.63
2018-11-21T05:00:06.867Z,12.60
2018-11-21T05:03:32.070Z,12.87
2018-11-21T05:06:57.029Z,12.97
2018-11-21T05:10:22.506Z,12.37
2018-11-21T05:13:47.514Z,15.25
2018-11-21T05:17:12.799Z,14.13
2018-11-21T05:20:37.780Z,14.00
2018-11-21T05:24:02.718Z,14.40
2018-11-21T05:27:21.185Z,13.37
2018-11-21T05:30:46.448Z,15.67
2018-11-21T05:34:11.826Z,14.35
2018-11-21T05:37:37.288Z,13.10
2018-11-21T05:41:02.221Z,14.00
2018-11-21T05:44:31.504Z,13.33
2018-11-21T05:47:52.437Z,13.70
2018-11-21T05:51:17.363Z,13.87
2018-11-21T05:54:42.637Z,13.73
2018-11-21T05:57:48.633Z,14.10
2018-11-21T06:01:13.550Z,15.17
2018-11-21T06:04:38.746Z,15.38
2018-11-21T06:08:03.687Z,13.50
2018-11-21T06:11:28.636Z,13.73
2018-11-21T06:14:53.835Z,14.00
2018-11-21T06:17:59.715Z,13.63
2018-11-21T06:21:24.656Z,14.37
2018-11-21T06:24:49.866Z,13.57
2018-11-21T06:28:15.099Z,13.23
2018-11-21T06:31:40.017Z,12.93
2018-11-21T06:35:05.036Z,15.17
2018-11-21T06:38:30.338Z,13.23
2018-11-21T06:41:55.269Z,12.07
2018-11-21T06:45:20.630Z,12.50
2018-11-21T06:48:45.551Z,13.53
2018-11-21T06:52:10.490Z,13.67
2018-11-21T06:55:35.785Z,14.00
2018-11-21T06:59:00.761Z,14.10
2018-11-21T07:02:25.716Z,13.80
2018-11-21T07:05:51.265Z,13.37
2018-11-21T07:09:16.220Z,13.43
2018-11-21T07:12:42.075Z,12.50
2018-11-21T07:16:07.002Z,12.27
2018-11-21T07:19:31.955Z,13.10
2018-11-21T07:22:57.510Z,12.73
2018-11-21T07:26:22.499Z,13.57
2018-11-21T07:30:06.387Z,12.43
2018-11-21T07:33:31.319Z,12.20
2018-11-21T07:36:56.616Z,12.13
2018-11-21T07:40:21.520Z,12.93
2018-11-21T07:43:27.664Z,22.70
2018-11-21T07:46:53.952Z,20.00
2018-11-21T07:50:20.468Z,13.67
2018-11-21T07:53:45.744Z,12.77
2018-11-21T07:57:31.914Z,14.20
2018-11-21T08:01:05.926Z,12.83
2018-11-21T08:04:49.771Z,12.47
2018-11-21T08:08:33.324Z,10.87
2018-11-21T08:12:16.889Z,13.33
2018-11-21T08:16:00.480Z,13.43
2018-11-21T08:19:39.855Z,11.10
2018-11-21T08:23:23.682Z,11.73
2018-11-21T08:27:07.281Z,11.97
2018-11-21T08:30:52.002Z,11.87
2018-11-21T08:34:17.008Z,12.80
2018-11-21T08:37:42.223Z,10.93
2018-11-21T08:41:07.432Z,12.07
2018-11-21T08:44:33.296Z,12.13
2018-11-21T08:47:58.370Z,12.67
2018-11-21T08:51:23.648Z,12.23
2018-11-21T08:54:48.941Z,12.67
2018-11-21T08:58:14.274Z,12.33
2018-11-21T09:01:58.208Z,11.03
2018-11-21T09:05:23.211Z,11.50
2018-11-21T09:08:48.923Z,11.53
2018-11-21T09:12:15.421Z,11.00
2018-11-21T09:15:57.778Z,11.50
2018-11-21T09:19:42.142Z,10.90
2018-11-21T09:23:26.109Z,10.83
2018-11-21T09:26:51.406Z,11.97
2018-11-21T09:30:17.945Z,12.50
2018-11-21T09:33:43.189Z,11.00
2018-11-21T09:37:08.136Z,10.23
2018-11-21T09:40:33.511Z,10.67
2018-11-21T09:43:58.518Z,10.77
2018-11-21T09:47:24.215Z,12.20
2018-11-21T09:50:48.958Z,11.40
2018-11-21T09:54:13.925Z,10.57
2018-11-21T09:57:39.417Z,10.30
2018-11-21T10:04:55.805Z,10.50
2018-11-21T10:08:37.558Z,12.27
2018-11-21T10:11:43.505Z,10.80
2018-11-21T10:15:09.367Z,11.33
2018-11-21T10:18:35.281Z,10.67
2018-11-21T10:22:00.221Z,10.17
2018-11-21T10:25:25.131Z,10.90
2018-11-21T10:28:51.241Z,11.30
2018-11-21T10:31:57.512Z,11.43
2018-11-21T10:35:22.487Z,11.03
2018-11-21T10:38:47.736Z,11.53
2018-11-21T10:42:13.110Z,11.57
2018-11-21T10:45:38.105Z,11.37
2018-11-21T10:49:22.322Z,10.13
2018-11-21T10:52:31.603Z,11.57
2018-11-21T10:55:34.238Z,10.93
2018-11-21T10:58:40.175Z,12.13
2018-11-21T11:02:24.180Z,11.93
2018-11-21T11:06:01.131Z,13.77
2018-11-21T11:09:28.739Z,10.90
2018-11-21T11:12:53.374Z,11.80
2018-11-21T11:16:19.876Z,11.20
2018-11-21T11:20:04.195Z,10.73
2018-11-21T11:23:47.648Z,11.25
2018-11-21T11:27:31.504Z,11.75
2018-11-21T11:31:15.712Z,11.17
2018-11-21T11:34:38.694Z,11.03
2018-11-21T11:37:56.192Z,10.30
2018-11-21T11:41:40.253Z,10.70
2018-11-21T11:45:24.006Z,10.03
2018-11-21T11:49:01.662Z,10.33
2018-11-21T11:52:26.994Z,8.90
2018-11-21T11:56:04.053Z,9.87
2018-11-21T11:59:18.259Z,11.03
2018-11-21T12:03:02.427Z,11.33
2018-11-21T12:06:46.052Z,10.00
2018-11-21T12:10:29.605Z,9.90
2018-11-21T12:14:13.474Z,9.53
2018-11-21T12:17:57.314Z,9.43
2018-11-21T12:21:41.134Z,9.30
2018-11-21T12:25:25.256Z,8.60
2018-11-21T12:29:09.099Z,9.33
2018-11-21T12:32:53.941Z,8.33
2018-11-21T12:36:37.598Z,8.60
2018-11-21T12:40:21.135Z,9.00
2018-11-21T12:44:04.737Z,9.53
2018-11-21T12:47:48.754Z,9.43
2018-11-21T12:51:32.322Z,10.03
2018-11-21T12:55:15.867Z,8.37
2018-11-21T12:59:00.196Z,9.57
2018-11-21T13:02:43.996Z,9.90
2018-11-21T13:06:27.525Z,9.93
2018-11-21T13:10:11.147Z,11.13
2018-11-21T13:13:54.770Z,10.37
2018-11-21T13:17:38.337Z,9.63
2018-11-21T13:21:22.046Z,10.83
2018-11-21T13:25:05.689Z,9.73
2018-11-21T13:28:49.519Z,9.80
2018-11-21T13:32:33.132Z,11.50
2018-11-21T13:36:16.697Z,9.70
2018-11-21T13:39:53.949Z,10.20
2018-11-21T13:43:38.300Z,10.50
2018-11-21T13:47:21.925Z,10.73
2018-11-21T13:51:06.023Z,11.17
2018-11-21T13:54:41.894Z,11.30
2018-11-21T13:58:25.625Z,11.07
2018-11-21T14:01:50.628Z,11.03
2018-11-21T14:10:16.098Z,11.67
2018-11-21T14:23:35.368Z,10.23
2018-11-21T14:26:42.321Z,11.57
2018-11-21T14:29:49.390Z,10.63
2018-11-21T14:33:14.350Z,10.57
2018-11-21T14:36:39.713Z,10.80
2018-11-21T14:40:05.102Z,9.90
2018-11-21T14:43:30.375Z,11.97
2018-11-21T14:46:56.865Z,12.10
2018-11-21T14:50:41.421Z,9.97
2018-11-21T14:54:25.490Z,12.73
2018-11-21T14:57:31.431Z,10.63
2018-11-21T15:00:38.580Z,11.43
2018-11-21T15:03:45.412Z,11.47
2018-11-21T15:06:51.415Z,12.07
2018-11-21T15:09:58.325Z,11.20
2018-11-21T15:13:23.804Z,13.22
2018-11-21T15:16:50.633Z,12.63
2018-11-21T15:20:17.479Z,11.63
2018-11-21T15:23:43.192Z,11.90
2018-11-21T15:27:08.661Z,12.30
2018-11-21T15:30:21.237Z,11.10
2018-11-21T15:33:27.921Z,12.00
2018-11-21T15:36:34.384Z,11.90
2018-11-21T15:39:59.865Z,12.67
2018-11-21T15:43:25.739Z,14.60
2018-11-21T15:47:09.456Z,14.20
2018-11-21T15:50:56.422Z,12.90
2018-11-21T15:54:21.684Z,13.77
2018-11-21T15:57:46.998Z,12.47
2018-11-21T16:00:53.311Z,12.77
2018-11-21T16:04:00.056Z,14.33
2018-11-21T16:07:17.727Z,14.20
2018-11-21T16:11:01.772Z,13.08
2018-11-21T16:14:28.124Z,12.60
2018-11-21T16:17:53.527Z,13.33
2018-11-21T16:21:18.784Z,13.00
2018-11-21T16:25:03.196Z,12.70
2018-11-21T16:28:28.878Z,12.87
2018-11-21T16:31:54.115Z,11.97
2018-11-21T16:35:19.457Z,13.17
2018-11-21T16:42:40.852Z,12.60
2018-11-21T16:46:05.805Z,13.93
2018-11-21T16:49:49.496Z,13.20
2018-11-21T16:53:14.769Z,14.10
2018-11-21T16:56:40.110Z,14.20
2018-11-21T17:03:54.634Z,12.45
2018-11-21T17:07:20.041Z,11.53
2018-11-21T17:10:44.997Z,13.93
2018-11-21T17:14:10.242Z,15.63
2018-11-21T17:17:36.339Z,13.37
2018-11-21T17:20:44.649Z,13.43
2018-11-21T17:23:51.175Z,12.80
2018-11-21T17:27:35.326Z,11.90
2018-11-21T17:31:01.024Z,12.70
2018-11-21T17:34:25.963Z,11.40
2018-11-21T17:37:51.216Z,11.23
2018-11-21T17:40:57.496Z,11.00
2018-11-21T17:44:22.808Z,12.63
2018-11-21T17:47:48.216Z,11.03
2018-11-21T17:51:13.744Z,11.73
2018-11-21T17:54:39.034Z,11.60
2018-11-21T17:58:23.695Z,11.55
2018-11-21T18:01:48.724Z,11.70
2018-11-21T18:05:15.247Z,13.23
2018-11-21T18:08:21.784Z,12.37
2018-11-21T18:11:28.060Z,12.67
2018-11-21T18:14:34.034Z,14.23
2018-11-21T18:17:58.955Z,13.30
2018-11-21T18:21:23.860Z,12.77
2018-11-21T18:24:49.063Z,11.80
2018-11-21T18:28:14.250Z,12.23
2018-11-21T18:31:58.566Z,12.70
2018-11-21T18:35:24.183Z,11.15
2018-11-21T18:38:49.128Z,9.40
2018-11-21T18:42:14.087Z,9.87
2018-11-21T18:45:32.686Z,10.33
2018-11-21T18:48:38.688Z,10.10
2018-11-21T18:51:45.107Z,10.80
2018-11-21T18:54:51.108Z,10.13
